sensor_id;sensor_type;location;lat;lon;timestamp;pressure;altitude;pressure_sealevel;temperature;humidity
10897;BME280;5501;51.176;6.470;2023-12-29T00:00:58;100453.72;;;12.23;80.53
10897;BME280;5501;51.176;6.470;2023-12-29T00:06:05;100447.66;;;12.41;79.86
10897;BME280;5501;51.176;6.470;2023-12-29T00:11:15;100449.84;;;12.30;80.36
10897;BME280;5501;51.176;6.470;2023-12-29T00:16:17;100450.16;;;12.45;79.23
10897;BME280;5501;51.176;6.470;2023-12-29T00:21:19;100443.94;;;12.45;79.44
10897;BME280;5501;51.176;6.470;2023-12-29T00:26:21;100437.97;;;12.38;79.17
10897;BME280;5501;51.176;6.470;2023-12-29T00:31:30;100432.47;;;12.43;79.08
10897;BME280;5501;51.176;6.470;2023-12-29T00:36:31;100432.09;;;12.52;78.84
10897;BME280;5501;51.176;6.470;2023-12-29T00:41:33;100438.97;;;12.57;78.36
10897;BME280;5501;51.176;6.470;2023-12-29T00:46:35;100429.81;;;12.43;79.38
10897;BME280;5501;51.176;6.470;2023-12-29T00:51:40;100426.56;;;12.35;79.28
10897;BME280;5501;51.176;6.470;2023-12-29T00:56:51;100430.97;;;12.36;80.24
10897;BME280;5501;51.176;6.470;2023-12-29T01:01:55;100414.31;;;12.51;79.19
10897;BME280;5501;51.176;6.470;2023-12-29T01:06:56;100397.91;;;12.40;79.35
10897;BME280;5501;51.176;6.470;2023-12-29T01:11:58;100394.91;;;12.26;80.82
10897;BME280;5501;51.176;6.470;2023-12-29T01:16:59;100381.53;;;12.49;79.86
10897;BME280;5501;51.176;6.470;2023-12-29T01:22:01;100376.31;;;12.46;79.88
10897;BME280;5501;51.176;6.470;2023-12-29T01:27:03;100379.47;;;12.34;80.46
10897;BME280;5501;51.176;6.470;2023-12-29T01:32:06;100373.22;;;12.13;81.88
10897;BME280;5501;51.176;6.470;2023-12-29T01:37:09;100360.72;;;12.14;82.03
10897;BME280;5501;51.176;6.470;2023-12-29T01:42:11;100370.56;;;12.35;81.20
10897;BME280;5501;51.176;6.470;2023-12-29T01:47:16;100367.19;;;12.30;81.38
10897;BME280;5501;51.176;6.470;2023-12-29T01:52:18;100366.41;;;12.28;81.70
10897;BME280;5501;51.176;6.470;2023-12-29T01:57:21;100369.19;;;12.25;82.05
10897;BME280;5501;51.176;6.470;2023-12-29T02:02:22;100381.34;;;12.32;82.13
10897;BME280;5501;51.176;6.470;2023-12-29T02:07:24;100397.00;;;12.18;85.32
10897;BME280;5501;51.176;6.470;2023-12-29T02:12:26;100378.59;;;12.12;87.97
10897;BME280;5501;51.176;6.470;2023-12-29T02:17:47;100394.50;;;11.92;89.33
10897;BME280;5501;51.176;6.470;2023-12-29T02:22:52;100385.56;;;11.93;90.36
10897;BME280;5501;51.176;6.470;2023-12-29T02:33:14;100377.81;;;11.64;95.56
10897;BME280;5501;51.176;6.470;2023-12-29T02:38:18;100373.47;;;11.61;95.47
10897;BME280;5501;51.176;6.470;2023-12-29T02:43:22;100358.72;;;11.76;94.78
10897;BME280;5501;51.176;6.470;2023-12-29T02:48:24;100345.28;;;11.79;94.16
10897;BME280;5501;51.176;6.470;2023-12-29T02:53:26;100345.28;;;11.79;93.68
10897;BME280;5501;51.176;6.470;2023-12-29T02:58:27;100331.03;;;11.80;93.44
10897;BME280;5501;51.176;6.470;2023-12-29T03:03:29;100325.59;;;11.83;92.85
10897;BME280;5501;51.176;6.470;2023-12-29T03:08:30;100332.38;;;11.90;91.59
10897;BME280;5501;51.176;6.470;2023-12-29T03:13:32;100338.06;;;12.04;90.59
10897;BME280;5501;51.176;6.470;2023-12-29T03:18:34;100331.69;;;12.08;89.87
10897;BME280;5501;51.176;6.470;2023-12-29T03:23:39;100326.34;;;12.08;88.56
10897;BME280;5501;51.176;6.470;2023-12-29T03:28:41;100336.13;;;12.29;88.09
10897;BME280;5501;51.176;6.470;2023-12-29T03:33:43;100333.16;;;12.36;87.08
10897;BME280;5501;51.176;6.470;2023-12-29T03:38:45;100332.78;;;12.24;87.22
10897;BME280;5501;51.176;6.470;2023-12-29T03:43:46;100326.97;;;12.36;87.11
10897;BME280;5501;51.176;6.470;2023-12-29T03:48:50;100319.16;;;12.31;86.44
10897;BME280;5501;51.176;6.470;2023-12-29T03:53:51;100318.66;;;12.22;86.70
10897;BME280;5501;51.176;6.470;2023-12-29T03:58:53;100320.47;;;12.43;85.75
10897;BME280;5501;51.176;6.470;2023-12-29T04:03:54;100338.63;;;12.33;87.57
10897;BME280;5501;51.176;6.470;2023-12-29T04:08:57;100317.78;;;12.00;92.31
10897;BME280;5501;51.176;6.470;2023-12-29T04:13:58;100330.84;;;12.06;92.77
10897;BME280;5501;51.176;6.470;2023-12-29T04:19:00;100303.63;;;11.98;91.16
10897;BME280;5501;51.176;6.470;2023-12-29T04:24:01;100291.03;;;12.03;90.28
10897;BME280;5501;51.176;6.470;2023-12-29T04:29:03;100295.03;;;12.13;88.63
10897;BME280;5501;51.176;6.470;2023-12-29T04:34:05;100304.75;;;12.14;88.56
10897;BME280;5501;51.176;6.470;2023-12-29T04:39:06;100301.34;;;12.32;87.43
10897;BME280;5501;51.176;6.470;2023-12-29T04:44:10;100304.91;;;12.11;87.25
10897;BME280;5501;51.176;6.470;2023-12-29T04:49:11;100313.31;;;12.22;86.54
10897;BME280;5501;51.176;6.470;2023-12-29T04:54:13;100323.00;;;12.03;87.24
10897;BME280;5501;51.176;6.470;2023-12-29T04:59:15;100314.44;;;11.95;87.43
10897;BME280;5501;51.176;6.470;2023-12-29T05:04:16;100316.03;;;12.20;86.20
10897;BME280;5501;51.176;6.470;2023-12-29T05:09:18;100294.09;;;12.14;86.10
10897;BME280;5501;51.176;6.470;2023-12-29T05:14:20;100319.41;;;12.04;87.07
10897;BME280;5501;51.176;6.470;2023-12-29T05:19:21;100312.19;;;12.06;86.35
10897;BME280;5501;51.176;6.470;2023-12-29T05:24:23;100316.47;;;12.10;86.60
10897;BME280;5501;51.176;6.470;2023-12-29T05:29:24;100313.97;;;12.07;86.57
10897;BME280;5501;51.176;6.470;2023-12-29T05:34:26;100306.19;;;12.01;86.38
10897;BME280;5501;51.176;6.470;2023-12-29T05:39:27;100319.50;;;12.01;86.16
10897;BME280;5501;51.176;6.470;2023-12-29T05:44:30;100307.81;;;12.05;86.03
10897;BME280;5501;51.176;6.470;2023-12-29T05:49:32;100302.34;;;11.86;86.26
10897;BME280;5501;51.176;6.470;2023-12-29T05:54:39;100312.56;;;11.97;85.68
10897;BME280;5501;51.176;6.470;2023-12-29T05:59:41;100321.38;;;11.99;84.93
10897;BME280;5501;51.176;6.470;2023-12-29T06:04:42;100323.50;;;12.12;84.36
10897;BME280;5501;51.176;6.470;2023-12-29T06:09:44;100324.28;;;11.93;84.88
10897;BME280;5501;51.176;6.470;2023-12-29T06:14:48;100329.44;;;11.97;85.02
10897;BME280;5501;51.176;6.470;2023-12-29T06:19:49;100327.19;;;12.30;84.86
10897;BME280;5501;51.176;6.470;2023-12-29T06:24:51;100336.50;;;11.98;85.43
10897;BME280;5501;51.176;6.470;2023-12-29T06:29:52;100320.91;;;12.11;84.83
10897;BME280;5501;51.176;6.470;2023-12-29T06:34:54;100329.44;;;11.97;85.04
10897;BME280;5501;51.176;6.470;2023-12-29T06:39:55;100314.28;;;11.98;84.92
10897;BME280;5501;51.176;6.470;2023-12-29T06:44:57;100322.13;;;12.24;84.39
10897;BME280;5501;51.176;6.470;2023-12-29T06:49:59;100330.47;;;12.16;84.76
10897;BME280;5501;51.176;6.470;2023-12-29T06:55:01;100320.63;;;12.17;84.96
10897;BME280;5501;51.176;6.470;2023-12-29T07:00:04;100328.69;;;12.37;84.67
10897;BME280;5501;51.176;6.470;2023-12-29T07:05:06;100321.31;;;12.22;85.50
10897;BME280;5501;51.176;6.470;2023-12-29T07:10:11;100310.97;;;12.36;85.14
10897;BME280;5501;51.176;6.470;2023-12-29T07:15:13;100318.03;;;12.37;85.44
10897;BME280;5501;51.176;6.470;2023-12-29T07:20:15;100322.00;;;12.27;86.81
10897;BME280;5501;51.176;6.470;2023-12-29T07:25:17;100317.03;;;12.18;88.90
10897;BME280;5501;51.176;6.470;2023-12-29T07:30:19;100328.06;;;12.09;92.03
10897;BME280;5501;51.176;6.470;2023-12-29T07:35:20;100338.34;;;11.75;96.36
10897;BME280;5501;51.176;6.470;2023-12-29T07:40:24;100324.34;;;11.70;99.30
10897;BME280;5501;51.176;6.470;2023-12-29T07:45:27;100319.97;;;11.67;100.00
10897;BME280;5501;51.176;6.470;2023-12-29T07:50:31;100316.31;;;11.47;100.00
10897;BME280;5501;51.176;6.470;2023-12-29T07:55:33;100330.66;;;11.43;100.00
10897;BME280;5501;51.176;6.470;2023-12-29T08:00:38;100331.66;;;11.40;100.00
10897;BME280;5501;51.176;6.470;2023-12-29T08:05:40;100351.72;;;11.26;100.00
10897;BME280;5501;51.176;6.470;2023-12-29T08:10:41;100339.56;;;11.42;100.00
10897;BME280;5501;51.176;6.470;2023-12-29T08:15:43;100359.25;;;11.13;100.00
10897;BME280;5501;51.176;6.470;2023-12-29T08:20:45;100350.09;;;11.22;100.00
10897;BME280;5501;51.176;6.470;2023-12-29T08:25:46;100364.25;;;11.22;100.00
10897;BME280;5501;51.176;6.470;2023-12-29T08:30:48;100359.25;;;11.13;100.00
10897;BME280;5501;51.176;6.470;2023-12-29T08:35:50;100338.78;;;11.15;100.00
10897;BME280;5501;51.176;6.470;2023-12-29T08:40:52;100344.50;;;11.05;100.00
10897;BME280;5501;51.176;6.470;2023-12-29T08:45:53;100367.00;;;11.21;100.00
10897;BME280;5501;51.176;6.470;2023-12-29T08:50:55;100382.28;;;11.14;100.00
10897;BME280;5501;51.176;6.470;2023-12-29T08:55:58;100379.19;;;11.02;100.00
10897;BME280;5501;51.176;6.470;2023-12-29T09:00:59;100370.53;;;11.20;100.00
10897;BME280;5501;51.176;6.470;2023-12-29T09:06:01;100368.91;;;11.16;100.00
10897;BME280;5501;51.176;6.470;2023-12-29T09:11:06;100375.66;;;11.26;100.00
10897;BME280;5501;51.176;6.470;2023-12-29T09:16:08;100376.09;;;11.14;100.00
10897;BME280;5501;51.176;6.470;2023-12-29T09:21:10;100368.13;;;11.37;100.00
10897;BME280;5501;51.176;6.470;2023-12-29T09:26:12;100377.16;;;11.33;100.00
10897;BME280;5501;51.176;6.470;2023-12-29T09:31:14;100380.41;;;11.41;100.00
10897;BME280;5501;51.176;6.470;2023-12-29T09:36:16;100381.63;;;11.08;100.00
10897;BME280;5501;51.176;6.470;2023-12-29T09:41:18;100385.38;;;11.27;100.00
10897;BME280;5501;51.176;6.470;2023-12-29T09:46:21;100373.16;;;11.21;100.00
10897;BME280;5501;51.176;6.470;2023-12-29T09:51:26;100368.91;;;11.16;100.00
10897;BME280;5501;51.176;6.470;2023-12-29T09:56:28;100371.13;;;11.05;100.00
10897;BME280;5501;51.176;6.470;2023-12-29T10:01:30;100379.78;;;11.10;100.00
10897;BME280;5501;51.176;6.470;2023-12-29T10:06:36;100391.09;;;11.16;100.00
10897;BME280;5501;51.176;6.470;2023-12-29T10:11:38;100393.69;;;11.18;100.00
10897;BME280;5501;51.176;6.470;2023-12-29T10:16:45;100392.91;;;11.14;100.00
10897;BME280;5501;51.176;6.470;2023-12-29T10:21:55;100381.19;;;11.20;100.00
10897;BME280;5501;51.176;6.470;2023-12-29T10:27:00;100379.19;;;11.26;100.00
10897;BME280;5501;51.176;6.470;2023-12-29T10:32:02;100380.84;;;11.29;100.00
10897;BME280;5501;51.176;6.470;2023-12-29T10:37:06;100385.38;;;11.27;100.00
10897;BME280;5501;51.176;6.470;2023-12-29T10:42:14;100368.81;;;11.19;100.00
10897;BME280;5501;51.176;6.470;2023-12-29T10:47:16;100380.09;;;11.25;100.00
10897;BME280;5501;51.176;6.470;2023-12-29T10:52:18;100376.25;;;11.34;100.00
10897;BME280;5501;51.176;6.470;2023-12-29T10:57:20;100360.59;;;11.49;100.00
10897;BME280;5501;51.176;6.470;2023-12-29T11:02:21;100354.28;;;11.52;100.00
10897;BME280;5501;51.176;6.470;2023-12-29T11:07:37;100354.38;;;11.49;100.00
10897;BME280;5501;51.176;6.470;2023-12-29T11:12:39;100356.00;;;11.77;100.00
10897;BME280;5501;51.176;6.470;2023-12-29T11:17:42;100367.38;;;11.81;100.00
10897;BME280;5501;51.176;6.470;2023-12-29T11:22:51;100370.06;;;11.81;100.00
10897;BME280;5501;51.176;6.470;2023-12-29T11:27:53;100358.91;;;11.93;100.00
10897;BME280;5501;51.176;6.470;2023-12-29T11:38:48;100364.25;;;11.93;100.00
10897;BME280;5501;51.176;6.470;2023-12-29T11:43:58;100367.75;;;11.95;100.00
10897;BME280;5501;51.176;6.470;2023-12-29T11:49:00;100377.25;;;11.79;100.00
10897;BME280;5501;51.176;6.470;2023-12-29T11:54:07;100351.41;;;11.58;100.00
10897;BME280;5501;51.176;6.470;2023-12-29T11:59:16;100342.41;;;11.62;100.00
10897;BME280;5501;51.176;6.470;2023-12-29T12:04:34;100343.69;;;11.96;100.00
10897;BME280;5501;51.176;6.470;2023-12-29T12:09:38;100332.38;;;11.90;100.00
10897;BME280;5501;51.176;6.470;2023-12-29T12:14:55;100334.72;;;11.99;100.00
10897;BME280;5501;51.176;6.470;2023-12-29T12:20:06;100340.31;;;11.91;100.00
10897;BME280;5501;51.176;6.470;2023-12-29T12:25:11;100342.06;;;12.14;100.00
10897;BME280;5501;51.176;6.470;2023-12-29T12:30:18;100329.31;;;12.00;100.00
10897;BME280;5501;51.176;6.470;2023-12-29T12:35:20;100324.84;;;12.01;100.00
10897;BME280;5501;51.176;6.470;2023-12-29T12:40:27;100323.34;;;11.94;100.00
10897;BME280;5501;51.176;6.470;2023-12-29T12:45:33;100317.78;;;12.00;100.00
10897;BME280;5501;51.176;6.470;2023-12-29T12:50:36;100314.06;;;12.04;100.00
10897;BME280;5501;51.176;6.470;2023-12-29T12:55:37;100307.63;;;11.88;100.00
10897;BME280;5501;51.176;6.470;2023-12-29T13:00:39;100292.97;;;11.98;100.00
10897;BME280;5501;51.176;6.470;2023-12-29T13:05:41;100295.34;;;12.05;100.00
10897;BME280;5501;51.176;6.470;2023-12-29T13:10:44;100285.31;;;12.12;100.00
10897;BME280;5501;51.176;6.470;2023-12-29T13:15:50;100289.53;;;11.96;100.00
10897;BME280;5501;51.176;6.470;2023-12-29T13:20:52;100289.03;;;12.08;100.00
10897;BME280;5501;51.176;6.470;2023-12-29T13:25:59;100285.31;;;12.12;100.00
10897;BME280;5501;51.176;6.470;2023-12-29T13:31:01;100280.47;;;12.00;100.00
10897;BME280;5501;51.176;6.470;2023-12-29T13:36:16;100276.13;;;12.19;100.00
10897;BME280;5501;51.176;6.470;2023-12-29T13:41:20;100300.56;;;12.08;100.00
10897;BME280;5501;51.176;6.470;2023-12-29T13:46:23;100306.63;;;12.12;100.00
10897;BME280;5501;51.176;6.470;2023-12-29T13:51:25;100297.16;;;12.05;100.00
10897;BME280;5501;51.176;6.470;2023-12-29T13:56:27;100303.91;;;11.92;100.00
10897;BME280;5501;51.176;6.470;2023-12-29T14:01:34;100318.00;;;11.94;100.00
10897;BME280;5501;51.176;6.470;2023-12-29T14:06:49;100289.69;;;11.70;100.00
10897;BME280;5501;51.176;6.470;2023-12-29T14:11:53;100312.34;;;11.57;100.00
10897;BME280;5501;51.176;6.470;2023-12-29T14:16:54;100288.44;;;11.55;100.00
10897;BME280;5501;51.176;6.470;2023-12-29T14:21:56;100273.13;;;11.39;100.00
10897;BME280;5501;51.176;6.470;2023-12-29T14:26:58;100285.16;;;11.26;100.00
10897;BME280;5501;51.176;6.470;2023-12-29T14:32:00;100262.25;;;11.22;100.00
10897;BME280;5501;51.176;6.470;2023-12-29T14:37:04;100273.81;;;10.98;100.00
10897;BME280;5501;51.176;6.470;2023-12-29T14:42:06;100274.97;;;11.14;100.00
10897;BME280;5501;51.176;6.470;2023-12-29T14:47:08;100281.63;;;11.25;100.00
10897;BME280;5501;51.176;6.470;2023-12-29T14:52:09;100285.50;;;11.17;100.00
10897;BME280;5501;51.176;6.470;2023-12-29T14:57:11;100271.34;;;11.39;100.00
10897;BME280;5501;51.176;6.470;2023-12-29T15:02:21;100272.28;;;11.37;100.00
10897;BME280;5501;51.176;6.470;2023-12-29T15:07:23;100270.00;;;11.51;100.00
10897;BME280;5501;51.176;6.470;2023-12-29T15:12:30;100272.16;;;11.64;100.00
10897;BME280;5501;51.176;6.470;2023-12-29T15:17:32;100278.47;;;11.62;100.00
10897;BME280;5501;51.176;6.470;2023-12-29T15:22:34;100277.59;;;11.61;100.00
10897;BME280;5501;51.176;6.470;2023-12-29T15:27:36;100266.84;;;11.64;100.00
10897;BME280;5501;51.176;6.470;2023-12-29T15:32:38;100258.41;;;11.75;100.00
10897;BME280;5501;51.176;6.470;2023-12-29T15:37:39;100266.97;;;11.83;100.00
10897;BME280;5501;51.176;6.470;2023-12-29T15:42:41;100249.25;;;11.82;100.00
10897;BME280;5501;51.176;6.470;2023-12-29T15:47:42;100239.16;;;11.68;100.00
10897;BME280;5501;51.176;6.470;2023-12-29T15:52:44;100235.50;;;11.71;100.00
10897;BME280;5501;51.176;6.470;2023-12-29T15:57:45;100236.63;;;11.87;100.00
10897;BME280;5501;51.176;6.470;2023-12-29T16:02:47;100223.09;;;11.70;100.00
10897;BME280;5501;51.176;6.470;2023-12-29T16:07:49;100216.28;;;11.63;100.00
10897;BME280;5501;51.176;6.470;2023-12-29T16:12:50;100225.28;;;11.59;100.00
10897;BME280;5501;51.176;6.470;2023-12-29T16:17:52;100225.88;;;11.44;100.00
10897;BME280;5501;51.176;6.470;2023-12-29T16:22:54;100211.41;;;11.51;100.00
10897;BME280;5501;51.176;6.470;2023-12-29T16:27:55;100210.06;;;11.62;100.00
10897;BME280;5501;51.176;6.470;2023-12-29T16:32:57;100213.72;;;11.37;100.00
10897;BME280;5501;51.176;6.470;2023-12-29T16:37:59;100229.84;;;11.55;100.00
10897;BME280;5501;51.176;6.470;2023-12-29T16:43:01;100229.69;;;11.60;100.00
10897;BME280;5501;51.176;6.470;2023-12-29T16:48:03;100223.69;;;11.55;100.00
10897;BME280;5501;51.176;6.470;2023-12-29T16:53:05;100225.84;;;11.68;100.00
10897;BME280;5501;51.176;6.470;2023-12-29T16:58:07;100218.88;;;11.86;100.00
10897;BME280;5501;51.176;6.470;2023-12-29T17:03:08;100220.50;;;11.68;100.00
10897;BME280;5501;51.176;6.470;2023-12-29T17:08:10;100212.91;;;11.58;100.00
10897;BME280;5501;51.176;6.470;2023-12-29T17:13:14;100210.06;;;11.62;100.00
10897;BME280;5501;51.176;6.470;2023-12-29T17:18:16;100201.69;;;11.50;100.00
10897;BME280;5501;51.176;6.470;2023-12-29T17:23:18;100191.38;;;11.64;100.00
10897;BME280;5501;51.176;6.470;2023-12-29T17:28:19;100205.16;;;11.52;100.00
10897;BME280;5501;51.176;6.470;2023-12-29T17:33:21;100214.75;;;11.56;100.00
10897;BME280;5501;51.176;6.470;2023-12-29T17:38:23;100211.69;;;11.66;100.00
10897;BME280;5501;51.176;6.470;2023-12-29T17:43:24;100214.75;;;11.56;100.00
10897;BME280;5501;51.176;6.470;2023-12-29T17:48:26;100227.59;;;11.45;100.00
10897;BME280;5501;51.176;6.470;2023-12-29T17:53:28;100235.16;;;11.55;100.00
10897;BME280;5501;51.176;6.470;2023-12-29T17:58:29;100226.94;;;11.63;100.00
10897;BME280;5501;51.176;6.470;2023-12-29T18:03:31;100231.22;;;11.67;100.00
10897;BME280;5501;51.176;6.470;2023-12-29T18:08:32;100245.09;;;11.52;100.00
10897;BME280;5501;51.176;6.470;2023-12-29T18:13:34;100255.19;;;11.67;100.00
10897;BME280;5501;51.176;6.470;2023-12-29T18:18:38;100247.38;;;11.62;100.00
10897;BME280;5501;51.176;6.470;2023-12-29T18:23:44;100244.88;;;11.58;100.00
10897;BME280;5501;51.176;6.470;2023-12-29T18:28:46;100240.31;;;11.61;100.00
10897;BME280;5501;51.176;6.470;2023-12-29T18:33:48;100253.56;;;11.63;100.00
10897;BME280;5501;51.176;6.470;2023-12-29T18:38:50;100252.03;;;11.56;100.00
10897;BME280;5501;51.176;6.470;2023-12-29T18:43:51;100257.25;;;11.59;100.00
10897;BME280;5501;51.176;6.470;2023-12-29T18:48:53;100263.13;;;11.68;100.00
10897;BME280;5501;51.176;6.470;2023-12-29T18:53:54;100279.63;;;11.78;100.00
10897;BME280;5501;51.176;6.470;2023-12-29T18:58:58;100279.72;;;11.52;100.00
10897;BME280;5501;51.176;6.470;2023-12-29T19:04:01;100271.16;;;11.44;100.00
10897;BME280;5501;51.176;6.470;2023-12-29T19:09:03;100279.25;;;11.41;100.00
10897;BME280;5501;51.176;6.470;2023-12-29T19:14:05;100280.66;;;11.51;100.00
10897;BME280;5501;51.176;6.470;2023-12-29T19:19:08;100289.69;;;11.47;100.00
10897;BME280;5501;51.176;6.470;2023-12-29T19:24:10;100285.13;;;11.49;100.00
10897;BME280;5501;51.176;6.470;2023-12-29T19:29:12;100299.69;;;11.40;100.00
10897;BME280;5501;51.176;6.470;2023-12-29T19:34:15;100305.88;;;11.41;100.00
10897;BME280;5501;51.176;6.470;2023-12-29T19:39:16;100307.25;;;11.28;100.00
10897;BME280;5501;51.176;6.470;2023-12-29T19:44:18;100308.09;;;11.30;100.00
10897;BME280;5501;51.176;6.470;2023-12-29T19:49:20;100320.47;;;11.31;100.00
10897;BME280;5501;51.176;6.470;2023-12-29T19:54:22;100314.16;;;11.33;100.00
10897;BME280;5501;51.176;6.470;2023-12-29T19:59:23;100300.19;;;11.27;100.00
10897;BME280;5501;51.176;6.470;2023-12-29T20:04:25;100316.88;;;11.32;100.00
10897;BME280;5501;51.176;6.470;2023-12-29T20:09:26;100331.00;;;11.34;100.00
10897;BME280;5501;51.176;6.470;2023-12-29T20:14:28;100338.06;;;11.35;100.00
10897;BME280;5501;51.176;6.470;2023-12-29T20:19:31;100339.78;;;11.36;100.00
10897;BME280;5501;51.176;6.470;2023-12-29T20:24:33;100339.69;;;11.39;100.00
10897;BME280;5501;51.176;6.470;2023-12-29T20:29:34;100324.75;;;11.58;100.00
10897;BME280;5501;51.176;6.470;2023-12-29T20:34:36;100321.53;;;11.50;100.00
10897;BME280;5501;51.176;6.470;2023-12-29T20:39:38;100332.84;;;11.32;100.00
10897;BME280;5501;51.176;6.470;2023-12-29T20:44:39;100342.19;;;11.43;100.00
10897;BME280;5501;51.176;6.470;2023-12-29T20:49:41;100332.50;;;11.41;100.00
10897;BME280;5501;51.176;6.470;2023-12-29T20:54:43;100343.09;;;11.42;100.00
10897;BME280;5501;51.176;6.470;2023-12-29T20:59:44;100348.47;;;11.41;99.48
10897;BME280;5501;51.176;6.470;2023-12-29T21:04:46;100336.63;;;11.25;99.79
10897;BME280;5501;51.176;6.470;2023-12-29T21:09:48;100358.91;;;11.22;99.93
10897;BME280;5501;51.176;6.470;2023-12-29T21:14:51;100353.47;;;11.50;98.00
10897;BME280;5501;51.176;6.470;2023-12-29T21:19:52;100358.16;;;11.43;98.04
10897;BME280;5501;51.176;6.470;2023-12-29T21:24:54;100373.47;;;11.37;98.46
10897;BME280;5501;51.176;6.470;2023-12-29T21:29:58;100366.78;;;11.50;97.33
10897;BME280;5501;51.176;6.470;2023-12-29T21:35:00;100371.53;;;11.42;97.85
10897;BME280;5501;51.176;6.470;2023-12-29T21:40:01;100370.00;;;11.35;98.10
10897;BME280;5501;51.176;6.470;2023-12-29T21:45:04;100375.44;;;11.32;98.31
10897;BME280;5501;51.176;6.470;2023-12-29T21:50:06;100395.50;;;11.42;97.18
10897;BME280;5501;51.176;6.470;2023-12-29T21:55:08;100405.97;;;11.46;95.94
10897;BME280;5501;51.176;6.470;2023-12-29T22:00:10;100407.00;;;11.42;95.08
10897;BME280;5501;51.176;6.470;2023-12-29T22:05:14;100398.25;;;11.39;94.80
10897;BME280;5501;51.176;6.470;2023-12-29T22:10:15;100394.63;;;11.17;96.06
10897;BME280;5501;51.176;6.470;2023-12-29T22:15:20;100406.00;;;10.96;96.89
10897;BME280;5501;51.176;6.470;2023-12-29T22:20:22;100413.13;;;11.20;95.54
10897;BME280;5501;51.176;6.470;2023-12-29T22:25:23;100425.41;;;10.99;96.26
10897;BME280;5501;51.176;6.470;2023-12-29T22:30:28;100435.25;;;10.96;97.14
10897;BME280;5501;51.176;6.470;2023-12-29T22:35:30;100424.94;;;10.87;96.01
10897;BME280;5501;51.176;6.470;2023-12-29T22:40:32;100433.75;;;10.89;94.68
10897;BME280;5501;51.176;6.470;2023-12-29T22:45:34;100444.28;;;10.92;94.29
10897;BME280;5501;51.176;6.470;2023-12-29T22:50:36;100444.41;;;10.89;94.99
10897;BME280;5501;51.176;6.470;2023-12-29T22:55:37;100441.56;;;10.93;94.76
10897;BME280;5501;51.176;6.470;2023-12-29T23:00:39;100448.25;;;10.79;95.95
10897;BME280;5501;51.176;6.470;2023-12-29T23:05:41;100447.66;;;10.97;95.07
10897;BME280;5501;51.176;6.470;2023-12-29T23:10:43;100455.53;;;10.74;95.85
10897;BME280;5501;51.176;6.470;2023-12-29T23:15:45;100459.13;;;10.73;96.20
10897;BME280;5501;51.176;6.470;2023-12-29T23:20:48;100457.06;;;10.81;96.09
10897;BME280;5501;51.176;6.470;2023-12-29T23:25:49;100465.31;;;10.99;95.26
10897;BME280;5501;51.176;6.470;2023-12-29T23:30:51;100470.66;;;10.72;96.44
10897;BME280;5501;51.176;6.470;2023-12-29T23:35:53;100462.09;;;10.90;95.33
10897;BME280;5501;51.176;6.470;2023-12-29T23:40:55;100472.81;;;10.87;95.51
10897;BME280;5501;51.176;6.470;2023-12-29T23:45:57;100468.38;;;10.59;97.45
10897;BME280;5501;51.176;6.470;2023-12-29T23:50:58;100473.31;;;10.72;96.25
10897;BME280;5501;51.176;6.470;2023-12-29T23:56:00;100465.50;;;10.67;96.88
